sensor_id;sensor_type;location;lat;lon;timestamp;pressure;altitude;pressure_sealevel;temperature;humidity
8101;BME280;4093;53.470;9.832;2023-02-03T00:00:05;101630.50;;;8.42;100.00
8101;BME280;4093;53.470;9.832;2023-02-03T00:02:33;101626.41;;;8.88;100.00
8101;BME280;4093;53.470;9.832;2023-02-03T00:05:01;101622.84;;;8.57;100.00
8101;BME280;4093;53.470;9.832;2023-02-03T00:07:29;101626.38;;;8.76;100.00
8101;BME280;4093;53.470;9.832;2023-02-03T00:09:57;101633.34;;;9.04;100.00
8101;BME280;4093;53.470;9.832;2023-02-03T00:12:25;101624.59;;;8.67;100.00
8101;BME280;4093;53.470;9.832;2023-02-03T00:14:52;101624.75;;;9.02;100.00
8101;BME280;4093;53.470;9.832;2023-02-03T00:17:21;101617.94;;;9.23;100.00
8101;BME280;4093;53.470;9.832;2023-02-03T00:19:49;101617.97;;;9.49;100.00
8101;BME280;4093;53.470;9.832;2023-02-03T00:22:17;101605.03;;;9.31;100.00
8101;BME280;4093;53.470;9.832;2023-02-03T00:24:45;101600.75;;;9.25;100.00
8101;BME280;4093;53.470;9.832;2023-02-03T00:27:12;101600.75;;;9.31;100.00
8101;BME280;4093;53.470;9.832;2023-02-03T00:29:40;101605.06;;;9.38;100.00
8101;BME280;4093;53.470;9.832;2023-02-03T00:32:08;101609.34;;;9.48;100.00
8101;BME280;4093;53.470;9.832;2023-02-03T00:34:37;101607.66;;;9.63;100.00
8101;BME280;4093;53.470;9.832;2023-02-03T00:37:05;101598.19;;;9.49;100.00
8101;BME280;4093;53.470;9.832;2023-02-03T00:39:35;101592.19;;;9.69;100.00
8101;BME280;4093;53.470;9.832;2023-02-03T00:42:03;101590.44;;;9.57;100.00
8101;BME280;4093;53.470;9.832;2023-02-03T00:44:31;101588.72;;;9.64;100.00
8101;BME280;4093;53.470;9.832;2023-02-03T00:46:59;101588.72;;;9.48;100.00
8101;BME280;4093;53.470;9.832;2023-02-03T00:49:27;101564.59;;;9.53;100.00
8101;BME280;4093;53.470;9.832;2023-02-03T00:51:56;101557.72;;;9.55;100.00
8101;BME280;4093;53.470;9.832;2023-02-03T00:54:24;101587.84;;;9.74;100.00
8101;BME280;4093;53.470;9.832;2023-02-03T00:56:51;101585.28;;;9.63;100.00
8101;BME280;4093;53.470;9.832;2023-02-03T00:59:19;101567.19;;;9.80;100.00
8101;BME280;4093;53.470;9.832;2023-02-03T01:01:47;101574.91;;;10.11;100.00
8101;BME280;4093;53.470;9.832;2023-02-03T01:04:15;101561.19;;;9.63;100.00
8101;BME280;4093;53.470;9.832;2023-02-03T01:06:43;101559.44;;;9.71;100.00
8101;BME280;4093;53.470;9.832;2023-02-03T01:09:12;101494.06;;;9.40;100.00
8101;BME280;4093;53.470;9.832;2023-02-03T01:11:40;101490.59;;;9.58;100.00
8101;BME280;4093;53.470;9.832;2023-02-03T01:14:07;101527.59;;;9.78;100.00
8101;BME280;4093;53.470;9.832;2023-02-03T01:16:35;101542.22;;;9.91;100.00
8101;BME280;4093;53.470;9.832;2023-02-03T01:19:04;101540.50;;;9.90;100.00
8101;BME280;4093;53.470;9.832;2023-02-03T01:21:31;101539.63;;;9.81;100.00
8101;BME280;4093;53.470;9.832;2023-02-03T01:24:01;101537.91;;;9.86;100.00
8101;BME280;4093;53.470;9.832;2023-02-03T01:26:30;101530.09;;;10.27;100.00
8101;BME280;4093;53.470;9.832;2023-02-03T01:28:59;101497.41;;;10.05;100.00
8101;BME280;4093;53.470;9.832;2023-02-03T01:31:29;101500.81;;;10.13;99.69
8101;BME280;4093;53.470;9.832;2023-02-03T01:33:58;101502.59;;;10.03;100.00
8101;BME280;4093;53.470;9.832;2023-02-03T01:36:28;101494.00;;;9.80;100.00
8101;BME280;4093;53.470;9.832;2023-02-03T01:38:56;101494.75;;;10.28;100.00
8101;BME280;4093;53.470;9.832;2023-02-03T01:41:26;101481.06;;;9.98;100.00
8101;BME280;4093;53.470;9.832;2023-02-03T01:43:57;101441.50;;;9.79;100.00
8101;BME280;4093;53.470;9.832;2023-02-03T01:46:29;101456.00;;;10.17;100.00
8101;BME280;4093;53.470;9.832;2023-02-03T01:49:03;101460.38;;;10.01;100.00
8101;BME280;4093;53.470;9.832;2023-02-03T01:51:33;101450.03;;;10.00;100.00
8101;BME280;4093;53.470;9.832;2023-02-03T01:54:02;101443.22;;;9.85;100.00
8101;BME280;4093;53.470;9.832;2023-02-03T01:56:34;101438.84;;;10.01;100.00
8101;BME280;4093;53.470;9.832;2023-02-03T01:59:06;101438.91;;;9.81;100.00
8101;BME280;4093;53.470;9.832;2023-02-03T02:01:34;101461.28;;;9.86;100.00
8101;BME280;4093;53.470;9.832;2023-02-03T02:04:03;101487.00;;;10.29;99.82
8101;BME280;4093;53.470;9.832;2023-02-03T02:06:31;101455.25;;;9.86;100.00
8101;BME280;4093;53.470;9.832;2023-02-03T02:08:58;101440.63;;;9.80;100.00
8101;BME280;4093;53.470;9.832;2023-02-03T02:11:27;101446.53;;;10.22;100.00
8101;BME280;4093;53.470;9.832;2023-02-03T02:13:58;101449.22;;;9.84;100.00
8101;BME280;4093;53.470;9.832;2023-02-03T02:16:34;101391.72;;;9.37;100.00
8101;BME280;4093;53.470;9.832;2023-02-03T02:19:34;101457.84;;;9.93;100.00
8101;BME280;4093;53.470;9.832;2023-02-03T02:22:13;101472.38;;;10.16;100.00
8101;BME280;4093;53.470;9.832;2023-02-03T02:25:07;101450.13;;;9.67;100.00
8101;BME280;4093;53.470;9.832;2023-02-03T02:28:17;101444.81;;;10.16;100.00
8101;BME280;4093;53.470;9.832;2023-02-03T02:31:04;101435.38;;;10.05;100.00
8101;BME280;4093;53.470;9.832;2023-02-03T02:33:41;101415.59;;;10.04;99.96
8101;BME280;4093;53.470;9.832;2023-02-03T02:36:17;101436.19;;;10.22;100.00
8101;BME280;4093;53.470;9.832;2023-02-03T02:38:57;101433.75;;;9.85;100.00
8101;BME280;4093;53.470;9.832;2023-02-03T02:41:32;101442.19;;;10.30;99.46
8101;BME280;4093;53.470;9.832;2023-02-03T02:44:04;101431.00;;;10.30;99.05
8101;BME280;4093;53.470;9.832;2023-02-03T02:46:36;101419.88;;;10.09;100.00
8101;BME280;4093;53.470;9.832;2023-02-03T02:49:11;101418.16;;;10.10;100.00
8101;BME280;4093;53.470;9.832;2023-02-03T02:51:41;101419.84;;;10.18;99.48
8101;BME280;4093;53.470;9.832;2023-02-03T02:54:13;101419.81;;;10.17;98.56
8101;BME280;4093;53.470;9.832;2023-02-03T02:56:44;101420.72;;;10.16;98.55
8101;BME280;4093;53.470;9.832;2023-02-03T02:59:14;101400.16;;;9.81;99.70
8101;BME280;4093;53.470;9.832;2023-02-03T03:01:42;101406.13;;;10.00;99.94
8101;BME280;4093;53.470;9.832;2023-02-03T03:04:13;101400.88;;;10.16;98.75
8101;BME280;4093;53.470;9.832;2023-02-03T03:06:45;101391.44;;;10.11;98.63
8101;BME280;4093;53.470;9.832;2023-02-03T03:09:17;101402.56;;;10.24;98.75
8101;BME280;4093;53.470;9.832;2023-02-03T03:11:48;101386.34;;;10.00;99.07
8101;BME280;4093;53.470;9.832;2023-02-03T03:14:18;101327.09;;;9.63;98.53
8101;BME280;4093;53.470;9.832;2023-02-03T03:16:48;101375.97;;;10.02;98.59
8101;BME280;4093;53.470;9.832;2023-02-03T03:19:21;101370.00;;;9.92;98.76
8101;BME280;4093;53.470;9.832;2023-02-03T03:21:53;101375.97;;;10.02;99.46
8101;BME280;4093;53.470;9.832;2023-02-03T03:24:25;101357.78;;;10.20;97.95
8101;BME280;4093;53.470;9.832;2023-02-03T03:26:56;101356.13;;;10.13;98.24
8101;BME280;4093;53.470;9.832;2023-02-03T03:29:29;101355.28;;;10.09;98.02
8101;BME280;4093;53.470;9.832;2023-02-03T03:32:01;101340.56;;;10.17;97.53
8101;BME280;4093;53.470;9.832;2023-02-03T03:34:31;101345.78;;;10.16;97.85
8101;BME280;4093;53.470;9.832;2023-02-03T03:37:03;101336.94;;;10.51;96.22
8101;BME280;4093;53.470;9.832;2023-02-03T03:39:37;101338.84;;;10.15;97.40
8101;BME280;4093;53.470;9.832;2023-02-03T03:42:11;101337.13;;;10.26;96.33
8101;BME280;4093;53.470;9.832;2023-02-03T03:44:47;101325.91;;;10.29;96.40
8101;BME280;4093;53.470;9.832;2023-02-03T03:47:26;101334.50;;;10.32;96.32
8101;BME280;4093;53.470;9.832;2023-02-03T03:49:59;101325.16;;;10.07;97.09
8101;BME280;4093;53.470;9.832;2023-02-03T03:52:31;101324.34;;;9.97;97.55
8101;BME280;4093;53.470;9.832;2023-02-03T03:55:02;101338.72;;;10.42;95.93
8101;BME280;4093;53.470;9.832;2023-02-03T03:57:35;101321.63;;;10.17;96.48
8101;BME280;4093;53.470;9.832;2023-02-03T04:00:06;101300.06;;;10.18;95.88
8101;BME280;4093;53.470;9.832;2023-02-03T04:02:38;101334.41;;;10.43;95.79
8101;BME280;4093;53.470;9.832;2023-02-03T04:05:09;101340.56;;;10.28;96.17
8101;BME280;4093;53.470;9.832;2023-02-03T04:07:40;101352.41;;;10.55;95.51
8101;BME280;4093;53.470;9.832;2023-02-03T04:10:15;101326.88;;;10.05;97.62
8101;BME280;4093;53.470;9.832;2023-02-03T04:12:44;101325.13;;;10.10;97.26
8101;BME280;4093;53.470;9.832;2023-02-03T04:15:12;101316.41;;;10.23;97.62
8101;BME280;4093;53.470;9.832;2023-02-03T04:17:39;101317.19;;;10.44;97.05
8101;BME280;4093;53.470;9.832;2023-02-03T04:20:10;101299.22;;;10.22;97.66
8101;BME280;4093;53.470;9.832;2023-02-03T04:22:38;101301.91;;;10.02;98.84
8101;BME280;4093;53.470;9.832;2023-02-03T04:25:06;101281.22;;;10.05;99.61
8101;BME280;4093;53.470;9.832;2023-02-03T04:27:34;101280.22;;;10.29;98.53
8101;BME280;4093;53.470;9.832;2023-02-03T04:30:03;101283.69;;;10.20;99.58
8101;BME280;4093;53.470;9.832;2023-02-03T04:32:31;101276.06;;;10.07;99.68
8101;BME280;4093;53.470;9.832;2023-02-03T04:35:01;101258.28;;;9.55;100.00
8101;BME280;4093;53.470;9.832;2023-02-03T04:37:30;101286.47;;;9.91;100.00
8101;BME280;4093;53.470;9.832;2023-02-03T04:39:58;101288.06;;;10.15;100.00
8101;BME280;4093;53.470;9.832;2023-02-03T04:42:26;101269.41;;;9.69;100.00
8101;BME280;4093;53.470;9.832;2023-02-03T04:44:53;101291.59;;;10.04;100.00
8101;BME280;4093;53.470;9.832;2023-02-03T04:47:21;101282.09;;;10.03;99.80
8101;BME280;4093;53.470;9.832;2023-02-03T04:49:49;101294.91;;;10.23;99.78
8101;BME280;4093;53.470;9.832;2023-02-03T04:52:17;101276.22;;;9.79;100.00
8101;BME280;4093;53.470;9.832;2023-02-03T04:54:46;101308.16;;;9.58;100.00
8101;BME280;4093;53.470;9.832;2023-02-03T04:57:13;101299.28;;;10.13;100.00
8101;BME280;4093;53.470;9.832;2023-02-03T04:59:41;101296.69;;;10.11;100.00
8101;BME280;4093;53.470;9.832;2023-02-03T05:02:09;101285.34;;;10.35;98.59
8101;BME280;4093;53.470;9.832;2023-02-03T05:04:37;101285.44;;;10.20;99.39
8101;BME280;4093;53.470;9.832;2023-02-03T05:07:04;101281.13;;;10.17;99.54
8101;BME280;4093;53.470;9.832;2023-02-03T05:09:32;101276.78;;;10.26;99.49
8101;BME280;4093;53.470;9.832;2023-02-03T05:12:01;101248.63;;;9.86;100.00
8101;BME280;4093;53.470;9.832;2023-02-03T05:14:29;101252.09;;;9.80;100.00
8101;BME280;4093;53.470;9.832;2023-02-03T05:16:57;101252.78;;;10.08;99.75
8101;BME280;4093;53.470;9.832;2023-02-03T05:19:25;101246.88;;;9.91;100.00
8101;BME280;4093;53.470;9.832;2023-02-03T05:21:52;101244.19;;;10.05;100.00
8101;BME280;4093;53.470;9.832;2023-02-03T05:24:20;101237.44;;;9.88;99.92
8101;BME280;4093;53.470;9.832;2023-02-03T05:26:48;101249.38;;;10.02;100.00
8101;BME280;4093;53.470;9.832;2023-02-03T05:29:17;101239.09;;;9.95;100.00
8101;BME280;4093;53.470;9.832;2023-02-03T05:31:44;101244.94;;;10.27;99.89
8101;BME280;4093;53.470;9.832;2023-02-03T05:34:12;101225.97;;;10.29;98.84
8101;BME280;4093;53.470;9.832;2023-02-03T05:36:40;101221.72;;;10.19;99.26
8101;BME280;4093;53.470;9.832;2023-02-03T05:39:07;101214.94;;;10.01;100.00
8101;BME280;4093;53.470;9.832;2023-02-03T05:41:35;101224.25;;;10.27;99.92
8101;BME280;4093;53.470;9.832;2023-02-03T05:44:26;101215.81;;;10.03;100.00
8101;BME280;4093;53.470;9.832;2023-02-03T05:46:55;101210.81;;;9.76;100.00
8101;BME280;4093;53.470;9.832;2023-02-03T05:49:24;101209.75;;;10.03;100.00
8101;BME280;4093;53.470;9.832;2023-02-03T05:51:53;101199.66;;;9.75;100.00
8101;BME280;4093;53.470;9.832;2023-02-03T05:54:21;101194.25;;;10.03;100.00
8101;BME280;4093;53.470;9.832;2023-02-03T05:56:49;101211.47;;;10.07;100.00
8101;BME280;4093;53.470;9.832;2023-02-03T05:59:17;101174.66;;;9.79;100.00
8101;BME280;4093;53.470;9.832;2023-02-03T06:01:46;101180.66;;;9.78;100.00
8101;BME280;4093;53.470;9.832;2023-02-03T06:04:14;101183.22;;;9.81;100.00
8101;BME280;4093;53.470;9.832;2023-02-03T06:06:42;101193.50;;;9.91;100.00
8101;BME280;4093;53.470;9.832;2023-02-03T06:09:10;101188.22;;;10.07;100.00
8101;BME280;4093;53.470;9.832;2023-02-03T06:11:38;101184.66;;;10.20;100.00
8101;BME280;4093;53.470;9.832;2023-02-03T06:14:08;101162.56;;;9.82;100.00
8101;BME280;4093;53.470;9.832;2023-02-03T06:16:35;101160.50;;;10.29;100.00
8101;BME280;4093;53.470;9.832;2023-02-03T06:19:05;101151.34;;;9.88;100.00
8101;BME280;4093;53.470;9.832;2023-02-03T06:21:32;101168.25;;;10.21;100.00
8101;BME280;4093;53.470;9.832;2023-02-03T06:24:00;101170.91;;;10.16;100.00
8101;BME280;4093;53.470;9.832;2023-02-03T06:26:28;101152.16;;;9.90;100.00
8101;BME280;4093;53.470;9.832;2023-02-03T06:28:56;101142.75;;;9.86;100.00
8101;BME280;4093;53.470;9.832;2023-02-03T06:31:24;101144.28;;;10.07;100.00
8101;BME280;4093;53.470;9.832;2023-02-03T06:33:51;101145.28;;;9.93;100.00
8101;BME280;4093;53.470;9.832;2023-02-03T06:36:21;101147.84;;;9.95;100.00
8101;BME280;4093;53.470;9.832;2023-02-03T06:38:49;101168.41;;;10.03;100.00
8101;BME280;4093;53.470;9.832;2023-02-03T06:41:16;101150.38;;;10.00;100.00
8101;BME280;4093;53.470;9.832;2023-02-03T06:43:44;101145.28;;;9.92;100.00
8101;BME280;4093;53.470;9.832;2023-02-03T06:46:12;101145.94;;;10.14;100.00
8101;BME280;4093;53.470;9.832;2023-02-03T06:48:40;101138.47;;;9.82;100.00
8101;BME280;4093;53.470;9.832;2023-02-03T06:51:08;101128.84;;;10.01;100.00
8101;BME280;4093;53.470;9.832;2023-02-03T06:53:37;101145.16;;;10.06;100.00
8101;BME280;4093;53.470;9.832;2023-02-03T06:56:05;101145.06;;;10.16;100.00
8101;BME280;4093;53.470;9.832;2023-02-03T06:58:32;101140.06;;;9.98;100.00
8101;BME280;4093;53.470;9.832;2023-02-03T07:01:00;101149.31;;;10.27;100.00
8101;BME280;4093;53.470;9.832;2023-02-03T07:03:28;101128.78;;;10.05;100.00
8101;BME280;4093;53.470;9.832;2023-02-03T07:05:58;101142.22;;;10.46;100.00
8101;BME280;4093;53.470;9.832;2023-02-03T07:08:26;101142.09;;;10.58;100.00
8101;BME280;4093;53.470;9.832;2023-02-03T07:10:55;101138.84;;;10.40;100.00
8101;BME280;4093;53.470;9.832;2023-02-03T07:13:23;101142.97;;;10.57;100.00
8101;BME280;4093;53.470;9.832;2023-02-03T07:15:51;101140.59;;;10.35;100.00
8101;BME280;4093;53.470;9.832;2023-02-03T07:18:19;101121.47;;;10.52;100.00
8101;BME280;4093;53.470;9.832;2023-02-03T07:21:10;101128.63;;;10.28;100.00
8101;BME280;4093;53.470;9.832;2023-02-03T07:23:37;101125.25;;;10.17;100.00
8101;BME280;4093;53.470;9.832;2023-02-03T07:26:07;101137.19;;;10.30;100.00
8101;BME280;4093;53.470;9.832;2023-02-03T07:28:35;101108.66;;;10.39;100.00
8101;BME280;4093;53.470;9.832;2023-02-03T07:31:04;101126.16;;;10.11;100.00
8101;BME280;4093;53.470;9.832;2023-02-03T07:33:37;101102.91;;;10.13;100.00
8101;BME280;4093;53.470;9.832;2023-02-03T07:36:09;101129.56;;;10.15;100.00
8101;BME280;4093;53.470;9.832;2023-02-03T07:38:38;101102.06;;;10.09;100.00
8101;BME280;4093;53.470;9.832;2023-02-03T07:41:07;101123.16;;;10.54;100.00
8101;BME280;4093;53.470;9.832;2023-02-03T07:43:35;101118.81;;;10.59;100.00
8101;BME280;4093;53.470;9.832;2023-02-03T07:46:03;101116.34;;;10.49;100.00
8101;BME280;4093;53.470;9.832;2023-02-03T07:48:31;101115.44;;;10.50;100.00
8101;BME280;4093;53.470;9.832;2023-02-03T07:50:59;101105.41;;;10.22;100.00
8101;BME280;4093;53.470;9.832;2023-02-03T07:53:27;101087.31;;;10.20;100.00
8101;BME280;4093;53.470;9.832;2023-02-03T07:55:58;101107.13;;;10.20;100.00
8101;BME280;4093;53.470;9.832;2023-02-03T07:58:28;101132.53;;;10.64;100.00
8101;BME280;4093;53.470;9.832;2023-02-03T08:00:56;101120.59;;;10.54;100.00
8101;BME280;4093;53.470;9.832;2023-02-03T08:03:24;101126.78;;;10.39;100.00
8101;BME280;4093;53.470;9.832;2023-02-03T08:05:51;101129.06;;;10.69;100.00
8101;BME280;4093;53.470;9.832;2023-02-03T08:08:19;101118.78;;;10.61;100.00
8101;BME280;4093;53.470;9.832;2023-02-03T08:10:47;101128.63;;;10.25;100.00
8101;BME280;4093;53.470;9.832;2023-02-03T08:13:15;101147.19;;;10.64;100.00
8101;BME280;4093;53.470;9.832;2023-02-03T08:15:44;101147.19;;;10.64;100.00
8101;BME280;4093;53.470;9.832;2023-02-03T08:18:12;101142.41;;;10.27;100.00
8101;BME280;4093;53.470;9.832;2023-02-03T08:20:40;101169.84;;;10.44;100.00
8101;BME280;4093;53.470;9.832;2023-02-03T08:23:07;101176.84;;;10.29;100.00
8101;BME280;4093;53.470;9.832;2023-02-03T08:25:35;101201.84;;;10.21;100.00
8101;BME280;4093;53.470;9.832;2023-02-03T08:28:03;101190.63;;;10.31;100.00
8101;BME280;4093;53.470;9.832;2023-02-03T08:30:31;101190.63;;;10.31;100.00
8101;BME280;4093;53.470;9.832;2023-02-03T08:33:00;101190.88;;;9.98;100.00
8101;BME280;4093;53.470;9.832;2023-02-03T08:35:28;101210.59;;;10.09;100.00
8101;BME280;4093;53.470;9.832;2023-02-03T08:37:55;101177.91;;;10.02;96.91
8101;BME280;4093;53.470;9.832;2023-02-03T08:40:23;101228.69;;;10.09;94.57
8101;BME280;4093;53.470;9.832;2023-02-03T08:42:52;101198.72;;;9.81;92.68
8101;BME280;4093;53.470;9.832;2023-02-03T08:45:19;101206.41;;;9.91;91.06
8101;BME280;4093;53.470;9.832;2023-02-03T08:47:48;101204.00;;;9.64;90.06
8101;BME280;4093;53.470;9.832;2023-02-03T08:50:17;101208.25;;;9.74;88.48
8101;BME280;4093;53.470;9.832;2023-02-03T08:52:45;101232.13;;;10.07;88.59
8101;BME280;4093;53.470;9.832;2023-02-03T08:55:13;101220.88;;;10.15;87.21
8101;BME280;4093;53.470;9.832;2023-02-03T08:57:40;101221.06;;;9.89;86.49
8101;BME280;4093;53.470;9.832;2023-02-03T09:00:09;101222.41;;;10.39;86.61
8101;BME280;4093;53.470;9.832;2023-02-03T09:02:37;101221.13;;;9.82;86.14
8101;BME280;4093;53.470;9.832;2023-02-03T09:05:06;101217.56;;;9.95;85.03
8101;BME280;4093;53.470;9.832;2023-02-03T09:07:35;101233.09;;;9.93;86.06
8101;BME280;4093;53.470;9.832;2023-02-03T09:10:03;101215.13;;;9.78;86.36
8101;BME280;4093;53.470;9.832;2023-02-03T09:12:31;101212.03;;;10.44;84.61
8101;BME280;4093;53.470;9.832;2023-02-03T09:14:59;101194.16;;;10.16;84.60
8101;BME280;4093;53.470;9.832;2023-02-03T09:17:27;101208.13;;;9.92;86.75
8101;BME280;4093;53.470;9.832;2023-02-03T09:19:55;101211.53;;;9.98;86.96
8101;BME280;4093;53.470;9.832;2023-02-03T09:22:22;101225.25;;;10.03;87.60
8101;BME280;4093;53.470;9.832;2023-02-03T09:24:52;101214.84;;;10.12;87.43
8101;BME280;4093;53.470;9.832;2023-02-03T09:27:19;101234.59;;;10.20;88.52
8101;BME280;4093;53.470;9.832;2023-02-03T09:29:47;101184.22;;;9.66;88.93
8101;BME280;4093;53.470;9.832;2023-02-03T09:32:15;101247.66;;;10.04;89.44
8101;BME280;4093;53.470;9.832;2023-02-03T09:34:43;101229.78;;;9.75;90.62
8101;BME280;4093;53.470;9.832;2023-02-03T09:37:10;101251.06;;;10.06;90.16
8101;BME280;4093;53.470;9.832;2023-02-03T09:39:38;101235.63;;;10.01;89.90
8101;BME280;4093;53.470;9.832;2023-02-03T09:42:20;101238.25;;;9.92;89.31
8101;BME280;4093;53.470;9.832;2023-02-03T09:45:01;101243.34;;;10.03;88.57
8101;BME280;4093;53.470;9.832;2023-02-03T09:47:33;101242.44;;;10.08;87.92
8101;BME280;4093;53.470;9.832;2023-02-03T09:50:05;101229.78;;;9.75;87.69
8101;BME280;4093;53.470;9.832;2023-02-03T09:52:35;101267.31;;;10.29;86.90
8101;BME280;4093;53.470;9.832;2023-02-03T09:55:06;101263.84;;;10.32;86.42
8101;BME280;4093;53.470;9.832;2023-02-03T09:57:43;101245.03;;;10.10;86.95
8101;BME280;4093;53.470;9.832;2023-02-03T10:00:16;101264.88;;;10.02;87.90
8101;BME280;4093;53.470;9.832;2023-02-03T10:02:54;101276.66;;;10.42;87.32
8101;BME280;4093;53.470;9.832;2023-02-03T10:05:32;101278.53;;;10.28;87.25
8101;BME280;4093;53.470;9.832;2023-02-03T10:08:09;101278.66;;;10.07;86.47
8101;BME280;4093;53.470;9.832;2023-02-03T10:10:49;101295.66;;;10.38;86.65
8101;BME280;4093;53.470;9.832;2023-02-03T10:13:42;101289.84;;;10.04;86.08
8101;BME280;4093;53.470;9.832;2023-02-03T10:16:30;101281.25;;;10.02;85.20
8101;BME280;4093;53.470;9.832;2023-02-03T10:19:08;101300.00;;;10.38;84.78
8101;BME280;4093;53.470;9.832;2023-02-03T10:21:40;101309.53;;;10.28;85.01
8101;BME280;4093;53.470;9.832;2023-02-03T10:24:13;101305.91;;;10.51;84.72
8101;BME280;4093;53.470;9.832;2023-02-03T10:26:42;101296.41;;;10.54;83.74
8101;BME280;4093;53.470;9.832;2023-02-03T10:29:18;101296.50;;;10.44;82.99
8101;BME280;4093;53.470;9.832;2023-02-03T10:31:46;101291.44;;;10.25;82.72
8101;BME280;4093;53.470;9.832;2023-02-03T10:34:16;101320.88;;;10.00;82.33
8101;BME280;4093;53.470;9.832;2023-02-03T10:36:53;101273.47;;;10.07;81.82
8101;BME280;4093;53.470;9.832;2023-02-03T10:39:32;101322.50;;;10.16;80.67
8101;BME280;4093;53.470;9.832;2023-02-03T10:42:04;101318.13;;;10.30;80.37
8101;BME280;4093;53.470;9.832;2023-02-03T10:44:36;101330.00;;;10.56;79.65
8101;BME280;4093;53.470;9.832;2023-02-03T10:47:18;101336.09;;;10.50;79.37
8101;BME280;4093;53.470;9.832;2023-02-03T10:49:49;101339.56;;;10.43;79.92
8101;BME280;4093;53.470;9.832;2023-02-03T10:52:27;101333.59;;;10.38;79.91
8101;BME280;4093;53.470;9.832;2023-02-03T10:54:55;101354.25;;;10.36;80.37
8101;BME280;4093;53.470;9.832;2023-02-03T10:57:27;101334.44;;;10.41;80.02
8101;BME280;4093;53.470;9.832;2023-02-03T11:00:07;101344.72;;;10.46;80.82
8101;BME280;4093;53.470;9.832;2023-02-03T11:02:35;101361.91;;;10.56;80.19
8101;BME280;4093;53.470;9.832;2023-02-03T11:05:18;101352.47;;;10.46;79.05
8101;BME280;4093;53.470;9.832;2023-02-03T11:07:47;101346.47;;;10.44;79.54
8101;BME280;4093;53.470;9.832;2023-02-03T11:10:29;101357.34;;;10.87;78.27
8101;BME280;4093;53.470;9.832;2023-02-03T11:13:11;101368.06;;;10.38;78.58
8101;BME280;4093;53.470;9.832;2023-02-03T11:15:50;101357.78;;;10.29;78.25
8101;BME280;4093;53.470;9.832;2023-02-03T11:18:30;101372.81;;;10.94;76.37
8101;BME280;4093;53.470;9.832;2023-02-03T11:21:05;101376.63;;;10.47;76.44
8101;BME280;4093;53.470;9.832;2023-02-03T11:23:34;101366.94;;;10.72;76.25
8101;BME280;4093;53.470;9.832;2023-02-03T11:26:09;101368.53;;;10.88;76.44
8101;BME280;4093;53.470;9.832;2023-02-03T11:28:41;101355.28;;;11.19;74.63
8101;BME280;4093;53.470;9.832;2023-02-03T11:31:20;101320.38;;;10.72;74.93
8101;BME280;4093;53.470;9.832;2023-02-03T11:33:53;101335.13;;;10.62;76.72
8101;BME280;4093;53.470;9.832;2023-02-03T11:36:25;101345.56;;;10.51;77.52
8101;BME280;4093;53.470;9.832;2023-02-03T11:39:08;101326.66;;;10.45;77.50
8101;BME280;4093;53.470;9.832;2023-02-03T11:41:37;101366.84;;;10.81;77.50
8101;BME280;4093;53.470;9.832;2023-02-03T11:44:11;101293.31;;;10.03;79.11
8101;BME280;4093;53.470;9.832;2023-02-03T11:46:41;101362.78;;;10.54;78.40
8101;BME280;4093;53.470;9.832;2023-02-03T11:49:18;101353.19;;;10.70;77.73
8101;BME280;4093;53.470;9.832;2023-02-03T11:51:57;101354.16;;;10.52;78.34
8101;BME280;4093;53.470;9.832;2023-02-03T11:54:37;101331.56;;;10.74;77.40
8101;BME280;4093;53.470;9.832;2023-02-03T11:57:22;101354.09;;;10.61;78.02
8101;BME280;4093;53.470;9.832;2023-02-03T12:00:06;101330.97;;;10.44;77.51
8101;BME280;4093;53.470;9.832;2023-02-03T12:02:55;101338.19;;;11.05;76.87
8101;BME280;4093;53.470;9.832;2023-02-03T12:05:41;101342.41;;;11.16;75.97
8101;BME280;4093;53.470;9.832;2023-02-03T12:08:20;101357.50;;;10.66;76.71
8101;BME280;4093;53.470;9.832;2023-02-03T12:10:59;101352.94;;;10.97;75.77
8101;BME280;4093;53.470;9.832;2023-02-03T12:13:48;101360.75;;;10.91;76.48
8101;BME280;4093;53.470;9.832;2023-02-03T12:16:31;101371.03;;;10.99;76.25
8101;BME280;4093;53.470;9.832;2023-02-03T12:19:12;101371.28;;;10.68;76.66
8101;BME280;4093;53.470;9.832;2023-02-03T12:21:42;101301.03;;;10.08;77.14
8101;BME280;4093;53.470;9.832;2023-02-03T12:24:22;101383.25;;;10.81;76.68
8101;BME280;4093;53.470;9.832;2023-02-03T12:26:59;101377.47;;;10.46;76.17
8101;BME280;4093;53.470;9.832;2023-02-03T12:29:31;101391.16;;;10.63;76.19
8101;BME280;4093;53.470;9.832;2023-02-03T12:32:06;101379.84;;;10.75;75.64
8101;BME280;4093;53.470;9.832;2023-02-03T12:34:46;101396.31;;;10.64;77.17
8101;BME280;4093;53.470;9.832;2023-02-03T12:37:18;101397.25;;;10.50;77.62
8101;BME280;4093;53.470;9.832;2023-02-03T12:39:51;101360.88;;;10.74;76.85
8101;BME280;4093;53.470;9.832;2023-02-03T12:42:23;101393.75;;;10.58;77.30
8101;BME280;4093;53.470;9.832;2023-02-03T12:44:57;101389.34;;;10.76;75.67
8101;BME280;4093;53.470;9.832;2023-02-03T12:47:33;101398.19;;;10.44;76.92
8101;BME280;4093;53.470;9.832;2023-02-03T12:50:06;101415.50;;;10.31;77.31
8101;BME280;4093;53.470;9.832;2023-02-03T12:52:43;101428.38;;;10.40;76.69
8101;BME280;4093;53.470;9.832;2023-02-03T12:55:19;101418.81;;;10.53;75.70
8101;BME280;4093;53.470;9.832;2023-02-03T12:57:50;101429.88;;;10.75;75.16
8101;BME280;4093;53.470;9.832;2023-02-03T13:00:33;101439.59;;;10.33;75.67
8101;BME280;4093;53.470;9.832;2023-02-03T13:03:10;101417.25;;;10.22;74.04
8101;BME280;4093;53.470;9.832;2023-02-03T13:05:49;101417.03;;;10.58;73.38
8101;BME280;4093;53.470;9.832;2023-02-03T13:08:28;101430.94;;;10.42;73.85
8101;BME280;4093;53.470;9.832;2023-02-03T13:11:07;101434.41;;;10.33;73.04
8101;BME280;4093;53.470;9.832;2023-02-03T13:13:42;101452.50;;;10.33;73.01
8101;BME280;4093;53.470;9.832;2023-02-03T13:16:12;101458.59;;;10.18;74.31
8101;BME280;4093;53.470;9.832;2023-02-03T13:18:46;101443.78;;;10.57;73.91
8101;BME280;4093;53.470;9.832;2023-02-03T13:21:18;101451.59;;;10.47;74.20
8101;BME280;4093;53.470;9.832;2023-02-03T13:23:45;101452.41;;;10.55;74.83
8101;BME280;4093;53.470;9.832;2023-02-03T13:26:33;101459.41;;;10.40;76.02
8101;BME280;4093;53.470;9.832;2023-02-03T13:29:25;101488.72;;;10.30;75.73
8101;BME280;4093;53.470;9.832;2023-02-03T13:32:07;101444.94;;;9.83;77.30